sensor_id;sensor_type;location;lat;lon;timestamp;pressure;altitude;pressure_sealevel;temperature;humidity
49841;BME280;35738;49.890;5.930;2024-02-21T00:00:33;96585.88;;;3.80;92.00
49841;BME280;35738;49.890;5.930;2024-02-21T00:02:59;96570.66;;;3.77;91.74
49841;BME280;35738;49.890;5.930;2024-02-21T00:05:28;96584.28;;;3.79;91.68
49841;BME280;35738;49.890;5.930;2024-02-21T00:07:55;96571.44;;;3.77;91.40
49841;BME280;35738;49.890;5.930;2024-02-21T00:10:21;96571.09;;;3.74;92.45
49841;BME280;35738;49.890;5.930;2024-02-21T00:12:48;96591.97;;;3.74;91.40
49841;BME280;35738;49.890;5.930;2024-02-21T00:15:14;96586.75;;;3.74;92.26
49841;BME280;35738;49.890;5.930;2024-02-21T00:17:43;96570.66;;;3.77;91.69
49841;BME280;35738;49.890;5.930;2024-02-21T00:20:10;96563.09;;;3.69;91.87
49841;BME280;35738;49.890;5.930;2024-02-21T00:22:37;96558.75;;;3.62;90.91
49841;BME280;35738;49.890;5.930;2024-02-21T00:25:04;96557.16;;;3.61;91.37
49841;BME280;35738;49.890;5.930;2024-02-21T00:27:31;96544.31;;;3.60;91.50
49841;BME280;35738;49.890;5.930;2024-02-21T00:29:58;96566.00;;;3.60;92.05
49841;BME280;35738;49.890;5.930;2024-02-21T00:32:24;96565.06;;;3.55;92.03
49841;BME280;35738;49.890;5.930;2024-02-21T00:34:51;96554.84;;;3.53;92.05
49841;BME280;35738;49.890;5.930;2024-02-21T00:37:18;96544.81;;;3.50;91.56
49841;BME280;35738;49.890;5.930;2024-02-21T00:39:44;96555.69;;;3.47;91.89
49841;BME280;35738;49.890;5.930;2024-02-21T00:42:11;96558.44;;;3.52;91.19
49841;BME280;35738;49.890;5.930;2024-02-21T00:44:37;96540.03;;;3.47;92.07
49841;BME280;35738;49.890;5.930;2024-02-21T00:47:04;96550.91;;;3.44;91.44
49841;BME280;35738;49.890;5.930;2024-02-21T00:49:31;96563.38;;;3.42;91.24
49841;BME280;35738;49.890;5.930;2024-02-21T00:51:57;96557.72;;;3.45;91.25
49841;BME280;35738;49.890;5.930;2024-02-21T00:54:24;96574.53;;;3.49;91.57
49841;BME280;35738;49.890;5.930;2024-02-21T00:56:51;96575.72;;;3.53;91.34
49841;BME280;35738;49.890;5.930;2024-02-21T00:59:17;96571.31;;;3.54;91.53
49841;BME280;35738;49.890;5.930;2024-02-21T01:01:44;96573.69;;;3.55;91.63
49841;BME280;35738;49.890;5.930;2024-02-21T01:04:11;96578.13;;;3.55;91.33
49841;BME280;35738;49.890;5.930;2024-02-21T01:06:37;96565.06;;;3.55;91.84
49841;BME280;35738;49.890;5.930;2024-02-21T01:09:04;96571.66;;;3.57;91.70
49841;BME280;35738;49.890;5.930;2024-02-21T01:11:30;96562.03;;;3.58;91.30
49841;BME280;35738;49.890;5.930;2024-02-21T01:13:57;96559.63;;;3.56;92.02
49841;BME280;35738;49.890;5.930;2024-02-21T01:16:24;96542.38;;;3.55;91.73
49841;BME280;35738;49.890;5.930;2024-02-21T01:18:50;96534.78;;;3.54;92.11
49841;BME280;35738;49.890;5.930;2024-02-21T01:21:17;96519.91;;;3.54;91.70
49841;BME280;35738;49.890;5.930;2024-02-21T01:23:44;96513.09;;;3.53;92.08
49841;BME280;35738;49.890;5.930;2024-02-21T01:26:10;96524.53;;;3.52;91.22
49841;BME280;35738;49.890;5.930;2024-02-21T01:28:40;96516.69;;;3.52;91.30
49841;BME280;35738;49.890;5.930;2024-02-21T01:31:07;96512.09;;;3.54;91.37
49841;BME280;35738;49.890;5.930;2024-02-21T01:33:34;96513.09;;;3.53;91.52
49841;BME280;35738;49.890;5.930;2024-02-21T01:36:05;96513.09;;;3.53;91.70
49841;BME280;35738;49.890;5.930;2024-02-21T01:38:35;96495.81;;;3.52;91.95
49841;BME280;35738;49.890;5.930;2024-02-21T01:41:01;96495.03;;;3.52;92.32
49841;BME280;35738;49.890;5.930;2024-02-21T01:43:28;96491.03;;;3.49;91.78
49841;BME280;35738;49.890;5.930;2024-02-21T01:45:56;96492.63;;;3.50;91.71
49841;BME280;35738;49.890;5.930;2024-02-21T01:48:23;96494.44;;;3.50;92.77
49841;BME280;35738;49.890;5.930;2024-02-21T01:50:51;96492.63;;;3.50;92.05
49841;BME280;35738;49.890;5.930;2024-02-21T01:53:20;96483.78;;;3.51;91.32
49841;BME280;35738;49.890;5.930;2024-02-21T01:55:47;96477.41;;;3.47;91.41
49841;BME280;35738;49.890;5.930;2024-02-21T01:58:15;96482.63;;;3.47;91.71
49841;BME280;35738;49.890;5.930;2024-02-21T02:00:42;96469.81;;;3.46;92.45
49841;BME280;35738;49.890;5.930;2024-02-21T02:03:13;96472.63;;;3.44;92.50
49841;BME280;35738;49.890;5.930;2024-02-21T02:05:47;96468.78;;;3.47;91.71
49841;BME280;35738;49.890;5.930;2024-02-21T02:08:14;96465.84;;;3.43;92.21
49841;BME280;35738;49.890;5.930;2024-02-21T02:10:42;96464.25;;;3.42;92.62
49841;BME280;35738;49.890;5.930;2024-02-21T02:13:09;96463.44;;;3.42;91.81
49841;BME280;35738;49.890;5.930;2024-02-21T02:15:47;96456.19;;;3.44;92.39
49841;BME280;35738;49.890;5.930;2024-02-21T02:18:15;96451.53;;;3.46;92.37
49841;BME280;35738;49.890;5.930;2024-02-21T02:20:43;96444.50;;;3.46;92.18
49841;BME280;35738;49.890;5.930;2024-02-21T02:23:30;96442.22;;;3.38;92.39
49841;BME280;35738;49.890;5.930;2024-02-21T02:26:00;96436.00;;;3.21;92.68
49841;BME280;35738;49.890;5.930;2024-02-21T02:28:29;96439.41;;;3.03;91.94
49841;BME280;35738;49.890;5.930;2024-02-21T02:30:55;96451.53;;;2.91;91.97
49841;BME280;35738;49.890;5.930;2024-02-21T02:33:22;96456.84;;;3.21;93.39
49841;BME280;35738;49.890;5.930;2024-02-21T02:35:49;96450.69;;;3.33;92.60
49841;BME280;35738;49.890;5.930;2024-02-21T02:38:16;96440.03;;;3.35;93.41
49841;BME280;35738;49.890;5.930;2024-02-21T02:40:43;96426.56;;;3.38;92.85
49841;BME280;35738;49.890;5.930;2024-02-21T02:43:09;96413.97;;;2.98;92.34
49841;BME280;35738;49.890;5.930;2024-02-21T02:45:36;96433.63;;;2.76;92.27
49841;BME280;35738;49.890;5.930;2024-02-21T02:48:03;96426.84;;;3.12;92.13
49841;BME280;35738;49.890;5.930;2024-02-21T02:50:30;96418.56;;;2.78;91.73
49841;BME280;35738;49.890;5.930;2024-02-21T02:52:56;96422.53;;;2.44;92.55
49841;BME280;35738;49.890;5.930;2024-02-21T02:55:23;96407.94;;;2.36;92.65
49841;BME280;35738;49.890;5.930;2024-02-21T02:57:50;96415.03;;;2.29;92.56
49841;BME280;35738;49.890;5.930;2024-02-21T03:00:16;96418.22;;;2.74;93.47
49841;BME280;35738;49.890;5.930;2024-02-21T03:02:45;96415.97;;;2.78;92.56
49841;BME280;35738;49.890;5.930;2024-02-21T03:05:14;96416.94;;;2.59;93.16
49841;BME280;35738;49.890;5.930;2024-02-21T03:07:42;96414.88;;;2.67;92.60
49841;BME280;35738;49.890;5.930;2024-02-21T03:10:10;96408.75;;;2.80;92.79
49841;BME280;35738;49.890;5.930;2024-02-21T03:12:37;96406.53;;;2.59;92.46
49841;BME280;35738;49.890;5.930;2024-02-21T03:15:05;96410.03;;;2.71;93.28
49841;BME280;35738;49.890;5.930;2024-02-21T03:17:32;96402.34;;;2.58;92.81
49841;BME280;35738;49.890;5.930;2024-02-21T03:20:02;96378.38;;;2.49;93.69
49841;BME280;35738;49.890;5.930;2024-02-21T03:22:32;96382.50;;;2.57;94.11
49841;BME280;35738;49.890;5.930;2024-02-21T03:24:59;96381.06;;;2.42;93.85
49841;BME280;35738;49.890;5.930;2024-02-21T03:27:25;96375.00;;;2.85;94.19
49841;BME280;35738;49.890;5.930;2024-02-21T03:29:52;96361.09;;;2.73;94.09
49841;BME280;35738;49.890;5.930;2024-02-21T03:32:18;96353.25;;;2.55;93.23
49841;BME280;35738;49.890;5.930;2024-02-21T03:34:45;96355.59;;;2.45;92.97
49841;BME280;35738;49.890;5.930;2024-02-21T03:37:11;96358.59;;;2.41;93.72
49841;BME280;35738;49.890;5.930;2024-02-21T03:39:40;96351.47;;;2.55;93.66
49841;BME280;35738;49.890;5.930;2024-02-21T03:42:06;96346.78;;;2.64;94.15
49841;BME280;35738;49.890;5.930;2024-02-21T03:44:33;96341.84;;;2.74;94.43
49841;BME280;35738;49.890;5.930;2024-02-21T03:47:00;96341.25;;;2.72;94.70
49841;BME280;35738;49.890;5.930;2024-02-21T03:49:27;96343.88;;;2.72;94.70
49841;BME280;35738;49.890;5.930;2024-02-21T03:51:54;96334.31;;;2.84;95.32
49841;BME280;35738;49.890;5.930;2024-02-21T03:54:20;96324.59;;;2.73;94.88
49841;BME280;35738;49.890;5.930;2024-02-21T03:56:47;96316.66;;;2.68;93.85
49841;BME280;35738;49.890;5.930;2024-02-21T03:59:15;96311.59;;;2.55;94.63
49841;BME280;35738;49.890;5.930;2024-02-21T04:01:41;96309.63;;;2.50;94.57
49841;BME280;35738;49.890;5.930;2024-02-21T04:04:09;96313.38;;;2.54;94.34
49841;BME280;35738;49.890;5.930;2024-02-21T04:06:36;96311.16;;;2.58;94.75
49841;BME280;35738;49.890;5.930;2024-02-21T04:09:02;96306.94;;;2.57;94.44
49841;BME280;35738;49.890;5.930;2024-02-21T04:11:29;96295.81;;;2.68;95.30
49841;BME280;35738;49.890;5.930;2024-02-21T04:13:56;96303.06;;;2.66;94.89
49841;BME280;35738;49.890;5.930;2024-02-21T04:16:23;96287.69;;;2.76;95.71
49841;BME280;35738;49.890;5.930;2024-02-21T04:18:50;96286.53;;;2.72;95.17
49841;BME280;35738;49.890;5.930;2024-02-21T04:21:17;96293.13;;;2.56;94.80
49841;BME280;35738;49.890;5.930;2024-02-21T04:23:43;96294.78;;;2.51;95.00
49841;BME280;35738;49.890;5.930;2024-02-21T04:26:10;96289.00;;;2.67;94.69
49841;BME280;35738;49.890;5.930;2024-02-21T04:28:36;96283.25;;;2.77;95.75
49841;BME280;35738;49.890;5.930;2024-02-21T04:31:03;96291.72;;;2.90;95.51
49841;BME280;35738;49.890;5.930;2024-02-21T04:33:29;96289.66;;;2.81;94.91
49841;BME280;35738;49.890;5.930;2024-02-21T04:35:56;96290.28;;;2.76;96.10
49841;BME280;35738;49.890;5.930;2024-02-21T04:38:24;96294.78;;;2.87;95.97
49841;BME280;35738;49.890;5.930;2024-02-21T04:40:51;96281.84;;;2.62;96.21
49841;BME280;35738;49.890;5.930;2024-02-21T04:43:18;96291.88;;;2.40;96.33
49841;BME280;35738;49.890;5.930;2024-02-21T04:45:44;96290.47;;;2.45;96.24
49841;BME280;35738;49.890;5.930;2024-02-21T04:48:10;96285.03;;;2.64;95.18
49841;BME280;35738;49.890;5.930;2024-02-21T04:50:37;96289.59;;;2.51;95.02
49841;BME280;35738;49.890;5.930;2024-02-21T04:53:04;96292.69;;;2.59;96.40
49841;BME280;35738;49.890;5.930;2024-02-21T04:55:30;96288.41;;;2.83;96.40
49841;BME280;35738;49.890;5.930;2024-02-21T04:57:57;96287.19;;;2.86;95.75
49841;BME280;35738;49.890;5.930;2024-02-21T05:00:24;96286.81;;;2.82;95.57
49841;BME280;35738;49.890;5.930;2024-02-21T05:02:50;96285.06;;;2.76;95.67
49841;BME280;35738;49.890;5.930;2024-02-21T05:05:17;96289.00;;;2.67;95.90
49841;BME280;35738;49.890;5.930;2024-02-21T05:07:43;96291.03;;;2.65;96.07
49841;BME280;35738;49.890;5.930;2024-02-21T05:10:10;96291.75;;;2.72;96.94
49841;BME280;35738;49.890;5.930;2024-02-21T05:12:36;96294.09;;;2.62;95.79
49841;BME280;35738;49.890;5.930;2024-02-21T05:15:03;96295.50;;;2.58;96.52
49841;BME280;35738;49.890;5.930;2024-02-21T05:17:30;96285.81;;;2.65;96.95
49841;BME280;35738;49.890;5.930;2024-02-21T05:19:57;96291.31;;;2.75;96.70
49841;BME280;35738;49.890;5.930;2024-02-21T05:22:23;96280.88;;;2.75;96.00
49841;BME280;35738;49.890;5.930;2024-02-21T05:24:50;96278.78;;;2.84;97.61
49841;BME280;35738;49.890;5.930;2024-02-21T05:27:17;96273.47;;;2.90;97.50
49841;BME280;35738;49.890;5.930;2024-02-21T05:29:44;96278.69;;;2.90;96.68
49841;BME280;35738;49.890;5.930;2024-02-21T05:32:10;96278.97;;;3.00;96.84
49841;BME280;35738;49.890;5.930;2024-02-21T05:34:37;96278.50;;;2.73;96.25
49841;BME280;35738;49.890;5.930;2024-02-21T05:37:04;96263.75;;;2.67;96.17
49841;BME280;35738;49.890;5.930;2024-02-21T05:39:31;96280.63;;;2.47;97.28
49841;BME280;35738;49.890;5.930;2024-02-21T05:41:57;96266.72;;;2.53;96.27
49841;BME280;35738;49.890;5.930;2024-02-21T05:44:24;96264.63;;;2.61;96.24
49841;BME280;35738;49.890;5.930;2024-02-21T05:46:50;96269.47;;;2.58;95.79
49841;BME280;35738;49.890;5.930;2024-02-21T05:49:17;96261.06;;;2.56;96.60
49841;BME280;35738;49.890;5.930;2024-02-21T05:51:43;96258.44;;;2.74;95.83
49841;BME280;35738;49.890;5.930;2024-02-21T05:54:10;96252.81;;;2.59;96.95
49841;BME280;35738;49.890;5.930;2024-02-21T05:56:36;96244.59;;;2.62;96.97
49841;BME280;35738;49.890;5.930;2024-02-21T05:59:04;96245.56;;;2.79;96.70
49841;BME280;35738;49.890;5.930;2024-02-21T06:01:30;96235.16;;;2.79;96.81
49841;BME280;35738;49.890;5.930;2024-02-21T06:03:57;96242.97;;;2.79;96.33
49841;BME280;35738;49.890;5.930;2024-02-21T06:06:23;96238.91;;;2.65;96.58
49841;BME280;35738;49.890;5.930;2024-02-21T06:08:50;96240.16;;;2.62;97.19
49841;BME280;35738;49.890;5.930;2024-02-21T06:11:16;96236.03;;;2.55;96.60
49841;BME280;35738;49.890;5.930;2024-02-21T06:13:43;96227.38;;;2.42;96.21
49841;BME280;35738;49.890;5.930;2024-02-21T06:16:10;96231.56;;;2.43;97.36
49841;BME280;35738;49.890;5.930;2024-02-21T06:18:37;96225.63;;;2.36;95.46
49841;BME280;35738;49.890;5.930;2024-02-21T06:21:04;96220.16;;;2.26;95.89
49841;BME280;35738;49.890;5.930;2024-02-21T06:23:31;96222.44;;;2.34;97.23
49841;BME280;35738;49.890;5.930;2024-02-21T06:25:57;96214.63;;;2.53;96.29
49841;BME280;35738;49.890;5.930;2024-02-21T06:28:24;96213.56;;;2.72;96.81
49841;BME280;35738;49.890;5.930;2024-02-21T06:30:51;96212.25;;;2.81;97.14
49841;BME280;35738;49.890;5.930;2024-02-21T06:33:17;96211.53;;;2.74;96.59
49841;BME280;35738;49.890;5.930;2024-02-21T06:35:44;96201.69;;;2.76;96.38
49841;BME280;35738;49.890;5.930;2024-02-21T06:38:13;96207.84;;;2.82;95.87
49841;BME280;35738;49.890;5.930;2024-02-21T06:40:42;96202.84;;;2.80;95.85
49841;BME280;35738;49.890;5.930;2024-02-21T06:43:08;96199.41;;;2.68;95.70
49841;BME280;35738;49.890;5.930;2024-02-21T06:45:35;96198.09;;;2.59;95.78
49841;BME280;35738;49.890;5.930;2024-02-21T06:48:28;96202.00;;;2.68;95.44
49841;BME280;35738;49.890;5.930;2024-02-21T06:51:26;96199.84;;;2.65;95.73
49841;BME280;35738;49.890;5.930;2024-02-21T06:54:25;96197.75;;;2.85;96.66
49841;BME280;35738;49.890;5.930;2024-02-21T06:56:53;96196.63;;;2.81;95.24
49841;BME280;35738;49.890;5.930;2024-02-21T06:59:40;96195.59;;;2.82;95.46
49841;BME280;35738;49.890;5.930;2024-02-21T07:02:08;96205.19;;;2.70;95.94
49841;BME280;35738;49.890;5.930;2024-02-21T07:04:54;96196.34;;;2.71;95.90
49841;BME280;35738;49.890;5.930;2024-02-21T07:07:58;96206.03;;;2.82;94.87
49841;BME280;35738;49.890;5.930;2024-02-21T07:10:30;96199.03;;;2.64;96.19
49841;BME280;35738;49.890;5.930;2024-02-21T07:13:13;96201.44;;;2.66;95.79
49841;BME280;35738;49.890;5.930;2024-02-21T07:15:43;96206.53;;;2.72;95.19
49841;BME280;35738;49.890;5.930;2024-02-21T07:18:12;96200.53;;;2.72;94.58
49841;BME280;35738;49.890;5.930;2024-02-21T07:20:42;96196.13;;;2.72;95.40
49841;BME280;35738;49.890;5.930;2024-02-21T07:23:09;96195.44;;;2.77;96.16
49841;BME280;35738;49.890;5.930;2024-02-21T07:25:44;96195.44;;;2.77;94.38
49841;BME280;35738;49.890;5.930;2024-02-21T07:28:12;96191.56;;;2.68;94.63
49841;BME280;35738;49.890;5.930;2024-02-21T07:30:46;96196.78;;;2.68;95.03
49841;BME280;35738;49.890;5.930;2024-02-21T07:33:21;96203.59;;;2.69;94.77
49841;BME280;35738;49.890;5.930;2024-02-21T07:36:00;96194.47;;;2.90;94.83
49841;BME280;35738;49.890;5.930;2024-02-21T07:38:27;96212.63;;;2.96;94.84
49841;BME280;35738;49.890;5.930;2024-02-21T07:40:53;96193.75;;;3.13;95.01
49841;BME280;35738;49.890;5.930;2024-02-21T07:43:20;96193.88;;;3.18;94.89
49841;BME280;35738;49.890;5.930;2024-02-21T07:45:49;96178.00;;;3.19;95.20
49841;BME280;35738;49.890;5.930;2024-02-21T07:48:15;96187.63;;;3.07;95.11
49841;BME280;35738;49.890;5.930;2024-02-21T07:50:42;96178.31;;;2.99;94.70
49841;BME280;35738;49.890;5.930;2024-02-21T07:53:08;96180.31;;;2.97;94.27
49841;BME280;35738;49.890;5.930;2024-02-21T07:55:35;96184.97;;;2.95;95.45
49841;BME280;35738;49.890;5.930;2024-02-21T07:58:01;96186.44;;;2.91;95.69
49841;BME280;35738;49.890;5.930;2024-02-21T08:00:28;96187.03;;;3.05;95.03
49841;BME280;35738;49.890;5.930;2024-02-21T08:02:58;96184.66;;;3.03;95.18
49841;BME280;35738;49.890;5.930;2024-02-21T08:05:25;96178.09;;;3.13;95.77
49841;BME280;35738;49.890;5.930;2024-02-21T08:07:51;96170.28;;;3.13;95.27
49841;BME280;35738;49.890;5.930;2024-02-21T08:10:21;96179.16;;;3.23;94.87
49841;BME280;35738;49.890;5.930;2024-02-21T08:12:48;96179.69;;;3.14;95.37
49841;BME280;35738;49.890;5.930;2024-02-21T08:15:14;96170.41;;;3.18;94.71
49841;BME280;35738;49.890;5.930;2024-02-21T08:17:42;96173.09;;;3.11;94.74
49841;BME280;35738;49.890;5.930;2024-02-21T08:20:09;96173.44;;;3.15;95.19
49841;BME280;35738;49.890;5.930;2024-02-21T08:22:37;96167.22;;;3.16;94.40
49841;BME280;35738;49.890;5.930;2024-02-21T08:25:06;96164.75;;;3.32;95.42
49841;BME280;35738;49.890;5.930;2024-02-21T08:27:32;96147.28;;;3.33;95.59
49841;BME280;35738;49.890;5.930;2024-02-21T08:29:59;96140.72;;;3.42;95.24
49841;BME280;35738;49.890;5.930;2024-02-21T08:32:25;96137.22;;;3.37;95.17
49841;BME280;35738;49.890;5.930;2024-02-21T08:34:52;96133.00;;;3.47;94.49
49841;BME280;35738;49.890;5.930;2024-02-21T08:37:19;96122.81;;;3.57;94.60
49841;BME280;35738;49.890;5.930;2024-02-21T08:39:47;96120.00;;;3.99;95.07
49841;BME280;35738;49.890;5.930;2024-02-21T08:42:14;96122.72;;;4.04;95.01
49841;BME280;35738;49.890;5.930;2024-02-21T08:44:40;96117.78;;;3.68;94.84
49841;BME280;35738;49.890;5.930;2024-02-21T08:47:08;96116.66;;;3.63;95.68
49841;BME280;35738;49.890;5.930;2024-02-21T08:49:36;96117.59;;;3.57;94.87
49841;BME280;35738;49.890;5.930;2024-02-21T08:52:04;96107.25;;;3.74;94.84
49841;BME280;35738;49.890;5.930;2024-02-21T08:54:31;96114.75;;;3.59;94.82
49841;BME280;35738;49.890;5.930;2024-02-21T08:56:59;96108.16;;;3.56;94.38
49841;BME280;35738;49.890;5.930;2024-02-21T08:59:26;96098.94;;;3.65;94.63
49841;BME280;35738;49.890;5.930;2024-02-21T09:01:52;96090.56;;;3.63;94.92
49841;BME280;35738;49.890;5.930;2024-02-21T09:04:19;96077.75;;;3.62;94.26
49841;BME280;35738;49.890;5.930;2024-02-21T09:06:46;96079.19;;;3.70;94.14
49841;BME280;35738;49.890;5.930;2024-02-21T09:09:13;96066.06;;;3.64;95.06
49841;BME280;35738;49.890;5.930;2024-02-21T09:11:40;96069.91;;;3.74;94.79
49841;BME280;35738;49.890;5.930;2024-02-21T09:14:07;96063.44;;;3.64;94.72
49841;BME280;35738;49.890;5.930;2024-02-21T09:16:34;96060.84;;;3.64;94.29
49841;BME280;35738;49.890;5.930;2024-02-21T09:19:00;96052.53;;;3.68;94.21
49841;BME280;35738;49.890;5.930;2024-02-21T09:21:27;96050.06;;;3.73;94.45
49841;BME280;35738;49.890;5.930;2024-02-21T09:23:54;96053.31;;;3.80;94.99
49841;BME280;35738;49.890;5.930;2024-02-21T09:26:25;96047.63;;;3.83;94.31
49841;BME280;35738;49.890;5.930;2024-02-21T09:28:51;96039.16;;;3.76;94.68
49841;BME280;35738;49.890;5.930;2024-02-21T09:31:18;96049.81;;;3.74;94.71
49841;BME280;35738;49.890;5.930;2024-02-21T09:33:46;96042.66;;;3.70;95.03
49841;BME280;35738;49.890;5.930;2024-02-21T09:36:14;96052.88;;;3.71;94.58
49841;BME280;35738;49.890;5.930;2024-02-21T09:38:40;96048.09;;;3.80;95.46
49841;BME280;35738;49.890;5.930;2024-02-21T09:41:26;96049.81;;;3.74;94.71
49841;BME280;35738;49.890;5.930;2024-02-21T09:43:56;96040.81;;;3.82;95.15
49841;BME280;35738;49.890;5.930;2024-02-21T09:49:23;96041.84;;;3.81;95.32
49841;BME280;35738;49.890;5.930;2024-02-21T09:51:57;96027.69;;;3.77;94.46
49841;BME280;35738;49.890;5.930;2024-02-21T09:54:24;96042.22;;;3.73;95.07
49841;BME280;35738;49.890;5.930;2024-02-21T09:56:51;96025.16;;;3.82;95.25
49841;BME280;35738;49.890;5.930;2024-02-21T09:59:18;96026.59;;;3.89;95.45
49841;BME280;35738;49.890;5.930;2024-02-21T10:01:45;96026.41;;;3.79;95.04
49841;BME280;35738;49.890;5.930;2024-02-21T10:04:13;96018.88;;;3.94;94.94
49841;BME280;35738;49.890;5.930;2024-02-21T10:06:41;96024.91;;;3.95;95.21
49841;BME280;35738;49.890;5.930;2024-02-21T10:09:08;96024.75;;;4.02;95.34
49841;BME280;35738;49.890;5.930;2024-02-21T10:11:34;96009.03;;;4.13;94.86
49841;BME280;35738;49.890;5.930;2024-02-21T10:14:06;95997.81;;;4.13;94.44
49841;BME280;35738;49.890;5.930;2024-02-21T10:16:33;95994.56;;;4.22;94.67
49841;BME280;35738;49.890;5.930;2024-02-21T10:19:00;95989.53;;;4.33;94.47
49841;BME280;35738;49.890;5.930;2024-02-21T10:21:27;95997.75;;;4.41;93.92
49841;BME280;35738;49.890;5.930;2024-02-21T10:23:54;95989.84;;;4.53;94.09
49841;BME280;35738;49.890;5.930;2024-02-21T10:26:21;95987.63;;;4.62;93.78
49841;BME280;35738;49.890;5.930;2024-02-21T10:28:48;95998.63;;;4.64;93.86
49841;BME280;35738;49.890;5.930;2024-02-21T10:31:22;96000.06;;;4.71;93.40
49841;BME280;35738;49.890;5.930;2024-02-21T10:33:57;95989.06;;;4.69;93.03
49841;BME280;35738;49.890;5.930;2024-02-21T10:36:25;95992.78;;;4.73;92.94
49841;BME280;35738;49.890;5.930;2024-02-21T10:38:52;95991.56;;;4.81;92.84
49841;BME280;35738;49.890;5.930;2024-02-21T10:41:21;95993.88;;;4.77;92.63
49841;BME280;35738;49.890;5.930;2024-02-21T10:43:52;95980.81;;;4.77;91.46
49841;BME280;35738;49.890;5.930;2024-02-21T10:46:24;95977.25;;;4.83;91.85
49841;BME280;35738;49.890;5.930;2024-02-21T10:49:02;95966.88;;;4.72;91.71
49841;BME280;35738;49.890;5.930;2024-02-21T10:51:33;95968.63;;;4.66;91.67
49841;BME280;35738;49.890;5.930;2024-02-21T10:56:35;95963.22;;;4.73;91.48
49841;BME280;35738;49.890;5.930;2024-02-21T10:59:05;95953.97;;;4.65;91.63
49841;BME280;35738;49.890;5.930;2024-02-21T11:01:33;95949.75;;;4.64;91.42
49841;BME280;35738;49.890;5.930;2024-02-21T11:04:04;95940.44;;;4.68;90.86
49841;BME280;35738;49.890;5.930;2024-02-21T11:06:33;95942.69;;;4.81;91.66
49841;BME280;35738;49.890;5.930;2024-02-21T11:11:27;95933.91;;;4.88;90.37
49841;BME280;35738;49.890;5.930;2024-02-21T11:14:09;95939.53;;;4.79;90.66
49841;BME280;35738;49.890;5.930;2024-02-21T11:16:37;95931.69;;;4.79;90.75
49841;BME280;35738;49.890;5.930;2024-02-21T11:21:51;95933.75;;;4.77;90.81
49841;BME280;35738;49.890;5.930;2024-02-21T11:24:34;95926.53;;;4.84;89.70
49841;BME280;35738;49.890;5.930;2024-02-21T11:27:15;95913.47;;;4.84;89.98
49841;BME280;35738;49.890;5.930;2024-02-21T11:29:45;95903.63;;;4.92;90.18
49841;BME280;35738;49.890;5.930;2024-02-21T11:32:14;95886.47;;;5.01;90.25
49841;BME280;35738;49.890;5.930;2024-02-21T11:34:52;95886.53;;;5.06;89.85
49841;BME280;35738;49.890;5.930;2024-02-21T11:37:19;95875.03;;;5.07;89.57
49841;BME280;35738;49.890;5.930;2024-02-21T11:39:45;95867.44;;;5.05;89.13
49841;BME280;35738;49.890;5.930;2024-02-21T11:42:12;95879.19;;;5.03;89.08
49841;BME280;35738;49.890;5.930;2024-02-21T11:44:39;95851.38;;;4.97;88.73
49841;BME280;35738;49.890;5.930;2024-02-21T11:47:09;95855.94;;;4.84;89.49
49841;BME280;35738;49.890;5.930;2024-02-21T11:49:43;95855.50;;;4.93;89.63
49841;BME280;35738;49.890;5.930;2024-02-21T11:52:12;95860.78;;;4.98;88.84
49841;BME280;35738;49.890;5.930;2024-02-21T11:54:42;95850.81;;;4.95;88.54
49841;BME280;35738;49.890;5.930;2024-02-21T11:57:08;95837.25;;;4.98;89.09
49841;BME280;35738;49.890;5.930;2024-02-21T11:59:35;95841.44;;;4.99;89.06
49841;BME280;35738;49.890;5.930;2024-02-21T12:02:01;95825.50;;;5.00;88.92
49841;BME280;35738;49.890;5.930;2024-02-21T12:04:30;95816.50;;;5.13;88.89
49841;BME280;35738;49.890;5.930;2024-02-21T12:07:00;95815.84;;;5.23;89.12
49841;BME280;35738;49.890;5.930;2024-02-21T12:09:26;95822.94;;;5.27;88.28
49841;BME280;35738;49.890;5.930;2024-02-21T12:12:01;95787.06;;;5.23;87.78
49841;BME280;35738;49.890;5.930;2024-02-21T12:14:29;95784.25;;;5.29;88.09
49841;BME280;35738;49.890;5.930;2024-02-21T12:16:58;95771.13;;;5.24;87.79
49841;BME280;35738;49.890;5.930;2024-02-21T12:19:26;95766.84;;;5.18;87.36
49841;BME280;35738;49.890;5.930;2024-02-21T12:21:53;95754.31;;;5.20;87.99
49841;BME280;35738;49.890;5.930;2024-02-21T12:24:25;95754.91;;;5.27;87.88
49841;BME280;35738;49.890;5.930;2024-02-21T12:26:53;95775.66;;;5.34;88.10
49841;BME280;35738;49.890;5.930;2024-02-21T12:29:20;95756.19;;;5.52;86.69
49841;BME280;35738;49.890;5.930;2024-02-21T12:31:47;95760.38;;;5.53;87.10
49841;BME280;35738;49.890;5.930;2024-02-21T12:34:15;95751.44;;;5.48;86.53
49841;BME280;35738;49.890;5.930;2024-02-21T12:36:49;95752.03;;;5.56;86.47
49841;BME280;35738;49.890;5.930;2024-02-21T12:39:16;95747.78;;;5.50;86.37
49841;BME280;35738;49.890;5.930;2024-02-21T12:41:43;95743.06;;;5.46;86.08
49841;BME280;35738;49.890;5.930;2024-02-21T12:44:11;95741.06;;;5.59;85.55
49841;BME280;35738;49.890;5.930;2024-02-21T12:46:38;95732.75;;;5.67;86.30
49841;BME280;35738;49.890;5.930;2024-02-21T12:49:06;95705.00;;;5.66;84.50
49841;BME280;35738;49.890;5.930;2024-02-21T12:51:34;95711.00;;;5.66;85.05
49841;BME280;35738;49.890;5.930;2024-02-21T12:54:01;95708.13;;;5.68;84.59
49841;BME280;35738;49.890;5.930;2024-02-21T12:56:29;95694.00;;;5.69;84.58
49841;BME280;35738;49.890;5.930;2024-02-21T12:58:57;95681.97;;;5.73;84.19
49841;BME280;35738;49.890;5.930;2024-02-21T13:01:24;95673.06;;;5.69;84.17
49841;BME280;35738;49.890;5.930;2024-02-21T13:03:52;95687.22;;;5.73;84.52
49841;BME280;35738;49.890;5.930;2024-02-21T13:06:20;95683.63;;;5.79;83.54
49841;BME280;35738;49.890;5.930;2024-02-21T13:08:47;95673.69;;;5.86;83.29
49841;BME280;35738;49.890;5.930;2024-02-21T13:11:13;95663.19;;;5.81;83.06
49841;BME280;35738;49.890;5.930;2024-02-21T13:13:40;95640.09;;;5.73;83.53
49841;BME280;35738;49.890;5.930;2024-02-21T13:16:07;95643.13;;;5.55;83.89
49841;BME280;35738;49.890;5.930;2024-02-21T13:18:35;95632.19;;;5.63;83.14
49841;BME280;35738;49.890;5.930;2024-02-21T13:21:05;95634.72;;;5.53;83.77
49841;BME280;35738;49.890;5.930;2024-02-21T13:23:33;95626.38;;;5.56;83.54
49841;BME280;35738;49.890;5.930;2024-02-21T13:25:59;95629.03;;;5.61;84.41